createdAt,value
2022-09-23T00:01:28.318Z,97560.94
2022-09-23T00:03:59.797Z,97557.91
2022-09-23T00:06:30.875Z,97558.64
2022-09-23T00:08:58.979Z,97557.36
2022-09-23T00:11:31.476Z,97554.99
2022-09-23T00:14:00.417Z,97554.03
2022-09-23T00:16:34.380Z,97553.19
2022-09-23T00:19:03.795Z,97549.80
2022-09-23T00:21:32.250Z,97551.79
2022-09-23T00:24:00.599Z,97550.48
2022-09-23T00:26:28.789Z,97553.07
2022-09-23T00:28:56.980Z,97550.57
2022-09-23T00:31:27.345Z,97548.78
2022-09-23T00:34:00.565Z,97544.98
2022-09-23T00:36:29.743Z,97547.36
2022-09-23T00:38:58.118Z,97540.89
2022-09-23T00:41:26.954Z,97545.89
2022-09-23T00:43:57.552Z,97549.61
2022-09-23T00:46:28.790Z,97549.24
2022-09-23T00:49:15.716Z,97550.08
2022-09-23T00:51:55.388Z,97551.27
2022-09-23T00:54:25.876Z,97552.15
2022-09-23T00:56:55.646Z,97549.84
2022-09-23T00:59:26.191Z,97552.86
2022-09-23T01:02:00.265Z,97550.11
2022-09-23T01:04:30.197Z,97551.25
2022-09-23T01:06:58.630Z,97550.38
2022-09-23T01:09:26.936Z,97549.91
2022-09-23T01:12:10.176Z,97554.90
2022-09-23T01:14:47.440Z,97552.44
2022-09-23T01:17:34.720Z,97556.23
2022-09-23T01:20:20.898Z,97556.70
2022-09-23T01:23:22.523Z,97556.92
2022-09-23T01:26:05.697Z,97557.65
2022-09-23T01:29:03.886Z,97559.42
2022-09-23T01:31:51.511Z,97558.11
2022-09-23T01:34:31.543Z,97558.01
2022-09-23T01:37:19.390Z,97559.81
2022-09-23T01:40:14.804Z,97560.27
2022-09-23T01:42:51.226Z,97561.88
2022-09-23T01:45:43.507Z,97560.55
2022-09-23T01:48:33.054Z,97565.26
2022-09-23T01:51:05.985Z,97570.73
2022-09-23T01:54:04.343Z,97568.13
2022-09-23T01:56:40.755Z,97568.44
2022-09-23T01:59:30.269Z,97570.52
2022-09-23T02:02:03.322Z,97571.63
2022-09-23T02:04:39.817Z,97568.84
2022-09-23T02:07:22.553Z,97570.23
2022-09-23T02:10:11.313Z,97566.08
2022-09-23T02:12:44.112Z,97567.67
2022-09-23T02:15:16.701Z,97566.52
2022-09-23T02:17:54.171Z,97567.95
2022-09-23T02:20:29.855Z,97572.70
2022-09-23T02:23:12.457Z,97569.27
2022-09-23T02:25:52.087Z,97570.93
2022-09-23T02:28:36.024Z,97571.92
2022-09-23T02:31:50.185Z,97572.11
2022-09-23T02:34:35.029Z,97576.61
2022-09-23T02:37:37.207Z,97569.11
2022-09-23T02:40:11.435Z,97568.75
2022-09-23T02:43:00.609Z,97567.80
2022-09-23T02:45:28.812Z,97571.23
2022-09-23T02:48:04.534Z,97571.08
2022-09-23T02:50:33.895Z,97572.84
2022-09-23T02:53:02.449Z,97569.63
2022-09-23T02:55:33.691Z,97571.21
2022-09-23T02:58:03.227Z,97576.98
2022-09-23T03:00:50.300Z,97582.27
2022-09-23T03:03:45.170Z,97582.59
2022-09-23T03:06:19.378Z,97583.84
2022-09-23T03:08:54.699Z,97585.36
2022-09-23T03:11:22.943Z,97587.06
2022-09-23T03:14:18.833Z,97591.25
2022-09-23T03:16:54.357Z,97583.84
2022-09-23T03:19:22.393Z,97589.73
2022-09-23T03:22:33.747Z,97590.86
2022-09-23T03:25:10.658Z,97588.23
2022-09-23T03:27:42.550Z,97585.17
2022-09-23T03:30:13.034Z,97585.98
2022-09-23T03:32:47.126Z,97586.99
2022-09-23T03:35:15.251Z,97589.02
2022-09-23T03:37:59.695Z,97593.79
2022-09-23T03:40:38.506Z,97590.39
2022-09-23T03:43:06.921Z,97583.70
2022-09-23T03:45:35.353Z,97584.41
2022-09-23T03:48:03.620Z,97579.02
2022-09-23T03:50:31.688Z,97581.64
2022-09-23T03:52:59.800Z,97577.73
2022-09-23T03:55:27.975Z,97571.86
2022-09-23T03:57:56.417Z,97574.93
2022-09-23T04:00:24.494Z,97574.52
2022-09-23T04:02:52.545Z,97569.73
2022-09-23T04:05:21.175Z,97568.58
2022-09-23T04:07:50.963Z,97569.59
2022-09-23T04:10:19.287Z,97570.79
2022-09-23T04:12:47.410Z,97569.95
2022-09-23T04:15:15.736Z,97570.38
2022-09-23T04:17:43.781Z,97569.93
2022-09-23T04:20:11.813Z,97571.02
2022-09-23T04:22:39.972Z,97572.98
2022-09-23T04:25:08.623Z,97573.14
2022-09-23T04:27:38.046Z,97572.95
2022-09-23T04:30:07.177Z,97568.59
2022-09-23T04:32:39.559Z,97573.10
2022-09-23T04:35:08.389Z,97570.95
2022-09-23T04:37:36.590Z,97573.98
2022-09-23T04:40:08.412Z,97570.35
2022-09-23T04:42:39.727Z,97576.81
2022-09-23T04:45:08.334Z,97576.56
2022-09-23T04:47:37.409Z,97578.87
2022-09-23T04:50:05.873Z,97583.86
2022-09-23T04:52:33.977Z,97586.70
2022-09-23T04:55:02.197Z,97587.08
2022-09-23T04:57:30.590Z,97586.44
2022-09-23T04:59:59.007Z,97588.98
2022-09-23T05:02:28.372Z,97586.11
2022-09-23T05:04:59.223Z,97587.90
2022-09-23T05:07:27.379Z,97588.66
2022-09-23T05:09:55.544Z,97586.14
2022-09-23T05:12:23.844Z,97581.55
2022-09-23T05:14:51.820Z,97583.05
2022-09-23T05:17:21.100Z,97579.59
2022-09-23T05:19:49.357Z,97575.24
2022-09-23T05:22:17.519Z,97581.10
2022-09-23T05:24:46.181Z,97581.67
2022-09-23T05:27:14.175Z,97583.91
2022-09-23T05:29:42.418Z,97583.31
2022-09-23T05:32:10.432Z,97579.77
2022-09-23T05:34:38.876Z,97583.95
2022-09-23T05:37:07.324Z,97586.22
2022-09-23T05:39:35.428Z,97588.34
2022-09-23T05:42:04.239Z,97595.63
2022-09-23T05:44:32.377Z,97596.39
2022-09-23T05:47:00.537Z,97606.05
2022-09-23T05:49:48.327Z,97604.15
2022-09-23T05:52:17.493Z,97605.38
2022-09-23T05:54:45.553Z,97606.73
2022-09-23T05:57:13.662Z,97611.55
2022-09-23T05:59:42.444Z,97610.60
2022-09-23T06:02:10.548Z,97608.75
2022-09-23T06:04:38.757Z,97611.25
2022-09-23T06:07:06.851Z,97612.26
2022-09-23T06:09:36.683Z,97611.88
2022-09-23T06:12:06.510Z,97611.61
2022-09-23T06:14:34.764Z,97611.60
2022-09-23T06:17:02.913Z,97616.71
2022-09-23T06:19:31.074Z,97616.98
2022-09-23T06:21:59.314Z,97621.86
2022-09-23T06:24:31.328Z,97614.80
2022-09-23T06:27:01.205Z,97614.11
2022-09-23T06:29:30.957Z,97619.11
2022-09-23T06:31:59.774Z,97617.30
2022-09-23T06:34:28.101Z,97612.75
2022-09-23T06:36:56.218Z,97620.10
2022-09-23T06:39:24.613Z,97614.73
2022-09-23T06:41:52.787Z,97618.11
2022-09-23T06:44:20.964Z,97619.77
2022-09-23T06:46:51.007Z,97620.81
2022-09-23T06:49:20.844Z,97622.23
2022-09-23T06:51:48.963Z,97621.30
2022-09-23T06:54:16.928Z,97621.88
2022-09-23T06:56:48.021Z,97624.10
2022-09-23T06:59:17.101Z,97620.36
2022-09-23T07:01:47.620Z,97625.02
2022-09-23T07:04:15.817Z,97626.63
2022-09-23T07:06:43.940Z,97632.90
2022-09-23T07:09:12.248Z,97625.69
2022-09-23T07:11:40.333Z,97624.02
2022-09-23T07:14:09.868Z,97621.95
2022-09-23T07:16:39.030Z,97625.91
2022-09-23T07:19:07.305Z,97624.98
2022-09-23T07:21:35.427Z,97623.73
2022-09-23T07:24:03.949Z,97629.77
2022-09-23T07:26:34.189Z,97625.31
2022-09-23T07:29:05.984Z,97625.13
2022-09-23T07:31:39.590Z,97625.01
2022-09-23T07:34:11.746Z,97621.65
2022-09-23T07:36:41.093Z,97620.38
2022-09-23T07:39:12.022Z,97622.92
2022-09-23T07:41:41.710Z,97621.15
2022-09-23T07:44:11.761Z,97619.06
2022-09-23T07:46:40.344Z,97621.46
2022-09-23T07:49:08.661Z,97619.52
2022-09-23T07:51:38.472Z,97619.89
2022-09-23T07:54:10.545Z,97618.25
2022-09-23T07:56:39.454Z,97617.11
2022-09-23T07:59:09.041Z,97616.91
2022-09-23T08:01:41.371Z,97617.98
2022-09-23T08:04:19.048Z,97618.31
2022-09-23T08:06:50.387Z,97618.39
2022-09-23T08:09:20.562Z,97618.77
2022-09-23T08:11:50.784Z,97615.61
2022-09-23T08:14:19.258Z,97617.30
2022-09-23T08:16:47.743Z,97610.16
2022-09-23T08:19:16.549Z,97611.08
2022-09-23T08:21:46.753Z,97615.36
2022-09-23T08:24:19.649Z,97609.48
2022-09-23T08:26:49.124Z,97606.84
2022-09-23T08:29:19.308Z,97608.34
2022-09-23T08:31:49.593Z,97604.48
2022-09-23T08:34:19.146Z,97606.30
2022-09-23T08:36:47.244Z,97603.64
2022-09-23T08:39:17.576Z,97603.04
2022-09-23T08:41:58.373Z,97599.67
2022-09-23T08:44:45.439Z,97601.71
2022-09-23T08:47:22.714Z,97600.67
2022-09-23T08:50:13.196Z,97595.16
2022-09-23T08:52:52.148Z,97595.40
2022-09-23T08:55:24.166Z,97594.22
2022-09-23T09:01:14.146Z,97578.41
2022-09-23T09:03:51.921Z,97578.00
2022-09-23T09:06:53.473Z,97578.34
2022-09-23T09:09:40.938Z,97577.25
2022-09-23T09:12:17.033Z,97579.83
2022-09-23T09:15:03.234Z,97584.73
2022-09-23T09:18:01.237Z,97585.88
2022-09-23T09:20:47.787Z,97584.11
2022-09-23T09:23:20.123Z,97581.01
2022-09-23T09:25:50.918Z,97576.48
2022-09-23T09:28:31.091Z,97575.63
2022-09-23T09:31:29.744Z,97569.62
2022-09-23T09:34:03.751Z,97571.90
2022-09-23T09:36:55.839Z,97578.20
2022-09-23T09:39:26.209Z,97573.26
2022-09-23T09:41:58.602Z,97571.63
2022-09-23T09:44:53.150Z,97573.47
2022-09-23T09:47:48.013Z,97573.88
2022-09-23T09:50:21.717Z,97569.36
2022-09-23T09:52:51.182Z,97566.59
2022-09-23T09:55:27.586Z,97568.79
2022-09-23T09:58:01.786Z,97568.68
2022-09-23T10:00:43.102Z,97567.42
2022-09-23T10:03:14.091Z,97569.02
2022-09-23T10:05:47.652Z,97563.94
2022-09-23T10:08:35.082Z,97568.81
2022-09-23T10:11:04.947Z,97567.48
2022-09-23T10:13:33.164Z,97567.78
2022-09-23T10:16:04.099Z,97566.84
2022-09-23T10:18:47.031Z,97565.48
2022-09-23T10:21:17.776Z,97563.88
2022-09-23T10:23:50.161Z,97561.98
2022-09-23T10:26:32.273Z,97558.41
2022-09-23T10:29:20.662Z,97555.95
2022-09-23T10:31:53.053Z,97561.23
2022-09-23T10:34:27.677Z,97557.44
2022-09-23T10:37:02.716Z,97565.11
2022-09-23T10:39:49.217Z,97560.59
2022-09-23T10:42:38.588Z,97563.02
2022-09-23T10:45:39.825Z,97562.69
2022-09-23T10:48:36.680Z,97566.26
2022-09-23T10:51:11.850Z,97560.83
2022-09-23T10:54:01.453Z,97559.06
2022-09-23T10:56:39.957Z,97548.64
2022-09-23T10:59:40.286Z,97548.73
2022-09-23T11:02:14.442Z,97546.77
2022-09-23T11:05:18.900Z,97542.69
2022-09-23T11:08:05.159Z,97544.66
2022-09-23T11:11:11.697Z,97541.58
2022-09-23T11:13:54.706Z,97541.06
2022-09-23T11:16:42.742Z,97537.69
2022-09-23T11:19:18.182Z,97535.52
2022-09-23T11:21:58.336Z,97536.11
2022-09-23T11:25:14.179Z,97531.77
2022-09-23T11:27:54.165Z,97527.02
2022-09-23T11:30:22.427Z,97527.13
2022-09-23T11:33:14.916Z,97527.70
2022-09-23T11:35:50.836Z,97524.00
2022-09-23T11:38:25.333Z,97525.04
2022-09-23T11:41:02.844Z,97527.21
2022-09-23T11:43:40.004Z,97531.40
2022-09-23T11:46:20.631Z,97526.93
2022-09-23T11:49:27.184Z,97525.20
2022-09-23T11:52:20.500Z,97516.45
2022-09-23T11:55:09.559Z,97513.83
2022-09-23T11:57:51.582Z,97512.92
2022-09-23T12:00:23.257Z,97511.05
2022-09-23T12:03:05.535Z,97509.08
2022-09-23T12:06:00.526Z,97504.38
2022-09-23T12:08:32.439Z,97504.33
2022-09-23T12:11:37.798Z,97504.71
2022-09-23T12:14:34.811Z,97503.64
2022-09-23T12:17:14.929Z,97504.64
2022-09-23T12:20:24.896Z,97509.05
2022-09-23T12:23:25.953Z,97512.42
2022-09-23T12:26:01.825Z,97513.50
2022-09-23T12:28:38.874Z,97513.04
2022-09-23T12:31:13.865Z,97507.03
2022-09-23T12:33:49.852Z,97509.34
2022-09-23T12:36:27.041Z,97508.42
2022-09-23T12:39:25.777Z,97509.23
2022-09-23T12:41:58.584Z,97504.77
2022-09-23T12:44:29.840Z,97499.74
2022-09-23T12:47:36.281Z,97498.13
2022-09-23T12:50:42.834Z,97495.87
2022-09-23T12:53:35.435Z,97498.70
2022-09-23T12:56:19.480Z,97502.19
2022-09-23T12:58:48.377Z,97501.41
2022-09-23T13:01:20.231Z,97502.04
2022-09-23T13:04:13.200Z,97499.10
2022-09-23T13:07:07.357Z,97496.52
2022-09-23T13:09:42.866Z,97494.23
2022-09-23T13:12:34.829Z,97492.44
2022-09-23T13:15:06.451Z,97495.98
2022-09-23T13:17:37.813Z,97493.23
2022-09-23T13:20:17.850Z,97494.83
2022-09-23T13:22:49.189Z,97494.16
2022-09-23T13:25:24.232Z,97491.30
2022-09-23T13:27:57.788Z,97491.00
2022-09-23T13:30:27.047Z,97498.05
2022-09-23T13:33:18.883Z,97497.65
2022-09-23T13:35:51.356Z,97494.77
2022-09-23T13:38:26.276Z,97499.16
2022-09-23T13:41:22.331Z,97494.30
2022-09-23T13:43:59.426Z,97492.38
2022-09-23T13:46:34.185Z,97493.89
2022-09-23T13:49:03.259Z,97486.05
2022-09-23T13:51:35.085Z,97486.71
2022-09-23T13:54:05.175Z,97483.64
2022-09-23T13:56:35.360Z,97479.23
2022-09-23T13:59:24.775Z,97480.75
2022-09-23T14:02:07.097Z,97479.65
2022-09-23T14:04:35.216Z,97480.34
2022-09-23T14:07:04.465Z,97487.52
2022-09-23T14:09:35.710Z,97485.89
2022-09-23T14:12:06.915Z,97490.81
2022-09-23T14:14:37.665Z,97485.39
2022-09-23T14:17:07.860Z,97491.48
2022-09-23T14:19:37.340Z,97492.70
2022-09-23T14:22:08.197Z,97495.85
2022-09-23T14:24:40.069Z,97495.05
2022-09-23T14:27:18.049Z,97497.22
2022-09-23T14:29:49.462Z,97498.72
2022-09-23T14:32:24.803Z,97499.56
2022-09-23T14:35:04.994Z,97496.46
2022-09-23T14:37:56.715Z,97498.74
2022-09-23T14:40:26.393Z,97496.28
2022-09-23T14:43:12.171Z,97501.23
2022-09-23T14:45:41.560Z,97505.46
2022-09-23T14:48:24.175Z,97502.25
2022-09-23T14:50:57.427Z,97504.86
2022-09-23T14:53:31.945Z,97508.06
2022-09-23T14:56:11.606Z,97502.20
2022-09-23T14:58:54.665Z,97507.03
2022-09-23T15:01:32.379Z,97505.29
2022-09-23T15:04:23.647Z,97501.55
2022-09-23T15:06:56.449Z,97503.20
2022-09-23T15:09:45.176Z,97501.96
2022-09-23T15:12:21.423Z,97499.92
2022-09-23T15:14:53.681Z,97499.53
2022-09-23T15:17:30.550Z,97510.23
2022-09-23T15:20:02.586Z,97518.86
2022-09-23T15:22:30.914Z,97522.70
2022-09-23T15:25:32.753Z,97521.89
2022-09-23T15:28:13.033Z,97534.14
2022-09-23T15:30:44.316Z,97533.51
2022-09-23T15:33:17.561Z,97539.04
2022-09-23T15:35:49.349Z,97539.90
2022-09-23T15:38:17.875Z,97540.81
2022-09-23T15:40:49.233Z,97546.23
2022-09-23T15:43:45.265Z,97543.60
2022-09-23T15:46:46.053Z,97544.13
2022-09-23T15:49:34.053Z,97545.34
2022-09-23T15:52:04.433Z,97543.52
2022-09-23T15:54:33.817Z,97551.05
2022-09-23T15:57:02.451Z,97548.05
2022-09-23T15:59:31.754Z,97549.15
2022-09-23T16:02:10.549Z,97548.00
2022-09-23T16:04:41.377Z,97543.27
2022-09-23T16:07:16.489Z,97542.85
2022-09-23T16:09:44.765Z,97542.09
2022-09-23T16:12:13.404Z,97542.84
2022-09-23T16:14:41.497Z,97539.17
2022-09-23T16:17:13.425Z,97539.16
2022-09-23T16:19:41.458Z,97540.41
2022-09-23T16:22:14.598Z,97537.75
2022-09-23T16:24:42.930Z,97537.91
2022-09-23T16:27:34.169Z,97538.98
2022-09-23T16:30:02.369Z,97543.16
2022-09-23T16:32:30.773Z,97546.77
2022-09-23T16:34:59.016Z,97543.05
2022-09-23T16:37:27.105Z,97539.41
2022-09-23T16:39:55.465Z,97538.39
2022-09-23T16:42:26.773Z,97535.91
2022-09-23T16:44:57.829Z,97541.60
2022-09-23T16:47:32.045Z,97546.33
2022-09-23T16:50:05.247Z,97550.57
2022-09-23T16:52:33.502Z,97556.50
2022-09-23T16:55:01.455Z,97561.49
2022-09-23T16:57:30.230Z,97562.18
2022-09-23T17:00:16.778Z,97561.27
2022-09-23T17:03:03.229Z,97558.23
2022-09-23T17:05:31.234Z,97550.84
2022-09-23T17:08:00.231Z,97555.10
2022-09-23T17:10:33.044Z,97558.92
2022-09-23T17:13:01.025Z,97561.73
2022-09-23T17:15:29.064Z,97563.67
2022-09-23T17:17:57.072Z,97566.19
2022-09-23T17:20:25.014Z,97565.86
2022-09-23T17:22:55.180Z,97567.45
2022-09-23T17:25:23.171Z,97566.20
2022-09-23T17:27:51.511Z,97565.95
2022-09-23T17:30:19.599Z,97571.23
2022-09-23T17:32:47.694Z,97570.52
2022-09-23T17:35:15.765Z,97566.21
2022-09-23T17:37:43.841Z,97566.45
2022-09-23T17:40:12.267Z,97568.33
2022-09-23T17:42:43.625Z,97562.81
2022-09-23T17:45:12.947Z,97560.14
2022-09-23T17:47:41.980Z,97556.48
2022-09-23T17:50:10.228Z,97557.70
2022-09-23T17:52:38.214Z,97562.71
2022-09-23T17:55:07.022Z,97562.69
2022-09-23T17:57:35.041Z,97565.38
2022-09-23T18:00:03.400Z,97571.04
2022-09-23T18:02:39.779Z,97570.42
2022-09-23T18:05:08.345Z,97568.57
2022-09-23T18:07:36.455Z,97571.77
2022-09-23T18:10:04.903Z,97576.85
2022-09-23T18:12:33.172Z,97577.84
2022-09-23T18:15:01.495Z,97576.73
2022-09-23T18:17:29.568Z,97573.67
2022-09-23T18:19:57.675Z,97572.54
2022-09-23T18:22:25.717Z,97566.15
2022-09-23T18:24:53.856Z,97568.28
2022-09-23T18:27:21.918Z,97572.28
2022-09-23T18:29:50.102Z,97573.13
2022-09-23T18:32:18.190Z,97573.35
2022-09-23T18:34:46.268Z,97569.30
2022-09-23T18:37:16.122Z,97570.23
2022-09-23T18:39:44.847Z,97565.75
2022-09-23T18:42:14.252Z,97567.34
2022-09-23T18:44:42.329Z,97569.98
2022-09-23T18:47:30.280Z,97572.14
2022-09-23T18:50:16.596Z,97572.41
2022-09-23T18:52:44.597Z,97573.23
2022-09-23T18:55:12.943Z,97575.92
2022-09-23T18:57:41.198Z,97578.41
2022-09-23T19:00:09.962Z,97584.43
2022-09-23T19:02:38.046Z,97584.89
2022-09-23T19:05:06.612Z,97582.41
2022-09-23T19:07:35.424Z,97586.33
2022-09-23T19:10:03.861Z,97589.96
2022-09-23T19:12:32.116Z,97590.67
2022-09-23T19:15:00.205Z,97591.50
2022-09-23T19:17:29.233Z,97591.36
2022-09-23T19:19:58.640Z,97589.80
2022-09-23T19:22:26.722Z,97588.96
2022-09-23T19:24:54.824Z,97589.05
2022-09-23T19:27:23.625Z,97593.95
2022-09-23T19:29:51.771Z,97591.95
2022-09-23T19:32:19.848Z,97593.77
2022-09-23T19:34:47.947Z,97590.79
2022-09-23T19:37:16.553Z,97591.33
2022-09-23T19:39:45.183Z,97588.73
2022-09-23T19:42:13.282Z,97588.83
2022-09-23T19:44:43.939Z,97590.73
2022-09-23T19:47:15.633Z,97590.42
2022-09-23T19:49:44.208Z,97591.51
2022-09-23T19:52:12.268Z,97591.13
2022-09-23T19:54:42.730Z,97593.50
2022-09-23T19:57:13.887Z,97591.30
2022-09-23T19:59:42.133Z,97587.64
2022-09-23T20:02:16.127Z,97590.42
2022-09-23T20:04:44.457Z,97594.05
2022-09-23T20:07:12.506Z,97593.13
2022-09-23T20:09:40.715Z,97596.09
2022-09-23T20:12:08.774Z,97592.42
2022-09-23T20:14:37.000Z,97597.85
2022-09-23T20:17:08.544Z,97597.89
2022-09-23T20:19:36.753Z,97600.54
2022-09-23T20:22:23.199Z,97598.41
2022-09-23T20:24:56.269Z,97599.40
2022-09-23T20:27:25.327Z,97595.05
2022-09-23T20:29:53.366Z,97594.40
2022-09-23T20:32:21.440Z,97595.48
2022-09-23T20:34:49.822Z,97597.35
2022-09-23T20:37:20.429Z,97592.70
2022-09-23T20:39:48.628Z,97597.11
2022-09-23T20:42:18.349Z,97595.77
2022-09-23T20:44:47.444Z,97597.12
2022-09-23T20:47:17.625Z,97594.58
2022-09-23T20:49:46.633Z,97591.88
2022-09-23T20:52:18.001Z,97588.46
2022-09-23T20:54:46.422Z,97591.02
2022-09-23T20:57:16.274Z,97592.95
2022-09-23T20:59:44.571Z,97594.67
2022-09-23T21:02:12.660Z,97591.04
2022-09-23T21:04:40.822Z,97592.91
2022-09-23T21:07:09.397Z,97591.67
2022-09-23T21:09:37.482Z,97593.62
2022-09-23T21:12:05.634Z,97597.41
2022-09-23T21:14:33.716Z,97598.85
2022-09-23T21:17:01.766Z,97600.06
2022-09-23T21:19:30.400Z,97605.00
2022-09-23T21:21:58.315Z,97600.39
2022-09-23T21:25:25.156Z,97598.15
2022-09-23T21:27:14.319Z,97600.77
2022-09-23T21:29:42.496Z,97598.83
2022-09-23T21:32:10.573Z,97593.70
2022-09-23T21:34:38.881Z,97591.05
2022-09-23T21:37:07.118Z,97592.84
2022-09-23T21:39:35.214Z,97597.09
2022-09-23T21:42:03.300Z,97597.36
2022-09-23T21:44:31.821Z,97593.02
2022-09-23T21:46:59.930Z,97596.42
2022-09-23T21:49:28.109Z,97595.98
2022-09-23T21:51:59.006Z,97592.57
2022-09-23T21:54:27.073Z,97592.39
2022-09-23T21:56:55.126Z,97593.57
2022-09-23T21:59:23.155Z,97590.60
2022-09-23T22:01:54.183Z,97589.94
2022-09-23T22:04:22.503Z,97593.73
2022-09-23T22:06:50.813Z,97595.96
2022-09-23T22:09:20.761Z,97596.31
2022-09-23T22:12:07.460Z,97594.52
2022-09-23T22:14:43.553Z,97590.67
2022-09-23T22:17:14.619Z,97593.84
2022-09-23T22:19:46.775Z,97593.96
2022-09-23T22:22:17.917Z,97595.59
2022-09-23T22:24:47.857Z,97593.99
2022-09-23T22:27:19.105Z,97593.88
2022-09-23T22:30:05.988Z,97590.71
2022-09-23T22:32:46.322Z,97594.16
2022-09-23T22:35:19.238Z,97594.61
2022-09-23T22:37:48.940Z,97600.08
2022-09-23T22:40:17.313Z,97596.29
2022-09-23T22:42:45.814Z,97593.59
2022-09-23T22:45:14.025Z,97594.74
2022-09-23T22:47:45.555Z,97594.28
2022-09-23T22:50:14.719Z,97596.74
2022-09-23T22:52:43.700Z,97593.09
2022-09-23T22:55:12.672Z,97594.63
2022-09-23T22:57:41.214Z,97593.08
2022-09-23T23:00:11.319Z,97592.91
2022-09-23T23:02:48.135Z,97593.39
2022-09-23T23:05:16.259Z,97594.94
2022-09-23T23:07:44.261Z,97597.98
2022-09-23T23:10:12.341Z,97596.42
2022-09-23T23:12:41.951Z,97600.16
2022-09-23T23:15:12.437Z,97599.50
2022-09-23T23:17:41.405Z,97599.22
2022-09-23T23:20:09.667Z,97602.05
2022-09-23T23:22:38.036Z,97601.00
2022-09-23T23:25:06.587Z,97604.35
2022-09-23T23:27:34.911Z,97606.98
2022-09-23T23:30:03.777Z,97603.59
2022-09-23T23:32:32.483Z,97606.77
2022-09-23T23:35:00.599Z,97598.27
2022-09-23T23:37:29.535Z,97595.09
2022-09-23T23:39:57.772Z,97596.61
2022-09-23T23:42:27.335Z,97591.35
2022-09-23T23:44:55.608Z,97589.21
2022-09-23T23:47:24.272Z,97588.97
2022-09-23T23:49:52.446Z,97591.65
2022-09-23T23:52:20.604Z,97585.92
2022-09-23T23:54:48.781Z,97589.08
2022-09-23T23:57:19.756Z,97586.25
2022-09-23T23:59:47.707Z,97584.69
